Time;durP1;ratioP1;P1;durP2;ratioP2;P2;SDS_P1;SDS_P2;PMS_P1;PMS_P2;Temp;Humidity;BMP_temperature;BMP_pressure;BME280_temperature;BME280_humidity;BME280_pressure;Samples;Min_cycle;Max_cycle;Signal;HPM_P1;HPM_P2
2022/09/08 00:00:07;;;;;;;6.10;5.70;;;18.40;99.90;;;;;;5073035;28;20450;-58
2022/09/08 00:02:35;;;;;;;10.63;5.73;;;18.40;99.90;;;;;;5073172;28;20475;-58
2022/09/08 00:05:03;;;;;;;6.87;6.27;;;18.40;99.90;;;;;;5073180;28;20447;-58
2022/09/08 00:07:30;;;;;;;6.73;6.00;;;18.40;99.90;;;;;;5073162;28;20454;-58
2022/09/08 00:09:56;;;;;;;7.87;5.57;;;18.40;99.90;;;;;;5073196;28;20530;-58
2022/09/08 00:12:24;;;;;;;6.93;5.40;;;18.30;99.90;;;;;;5072866;28;20440;-58
2022/09/08 00:14:52;;;;;;;6.47;5.87;;;18.30;99.90;;;;;;5072829;28;20483;-58
2022/09/08 00:17:19;;;;;;;6.23;5.63;;;18.30;99.90;;;;;;5073077;28;20451;-58
2022/09/08 00:19:46;;;;;;;5.30;4.50;;;18.30;99.90;;;;;;5072971;28;20452;-59
2022/09/08 00:22:13;;;;;;;5.97;4.73;;;18.30;99.90;;;;;;5071844;28;20834;-58
2022/09/08 00:24:39;;;;;;;9.90;5.03;;;18.20;99.90;;;;;;5073113;28;20789;-58
2022/09/08 00:27:06;;;;;;;6.10;5.60;;;18.20;99.90;;;;;;5072778;28;20490;-58
2022/09/08 00:29:33;;;;;;;7.60;5.67;;;18.10;99.90;;;;;;5072690;28;20542;-58
2022/09/08 00:32:02;;;;;;;5.20;4.77;;;18.10;99.90;;;;;;5072823;28;20483;-58
2022/09/08 00:34:28;;;;;;;6.70;5.37;;;18.10;99.90;;;;;;5072793;28;20539;-58
2022/09/08 00:36:58;;;;;;;6.40;4.90;;;18.10;99.90;;;;;;5072758;28;20447;-58
2022/09/08 00:39:24;;;;;;;6.00;5.60;;;18.10;99.90;;;;;;5072748;28;20455;-58
2022/09/08 00:41:51;;;;;;;5.23;4.80;;;18.10;99.90;;;;;;5072698;28;20482;-58
2022/09/08 00:44:38;;;;;;;5.20;4.17;;;18.00;99.90;;;;;;5072867;28;20477;-58
2022/09/08 00:47:12;;;;;;;7.57;4.70;;;18.00;99.90;;;;;;5072721;28;20473;-58
2022/09/08 00:49:39;;;;;;;4.63;4.23;;;18.00;99.90;;;;;;5072634;28;20469;-58
2022/09/08 00:52:05;;;;;;;4.40;4.00;;;17.80;99.90;;;;;;5072511;28;20451;-57
2022/09/08 00:54:32;;;;;;;7.20;4.03;;;17.80;99.90;;;;;;5072472;28;20448;-58
2022/09/08 00:56:59;;;;;;;5.93;4.20;;;17.80;99.90;;;;;;5072690;28;20905;-58
2022/09/08 00:59:26;;;;;;;6.00;4.60;;;17.80;99.90;;;;;;5072616;28;20454;-58
2022/09/08 01:01:54;;;;;;;6.40;3.60;;;17.60;99.90;;;;;;5072402;28;20486;-58
2022/09/08 01:04:22;;;;;;;5.80;4.17;;;17.60;99.90;;;;;;5072451;28;20912;-58
2022/09/08 01:12:44;;;;;;;5.20;4.27;;;17.60;99.90;;;;;;5072629;28;20560;-58
2022/09/08 01:15:15;;;;;;;5.87;4.30;;;17.50;99.90;;;;;;5072229;28;20949;-59
2022/09/08 01:17:42;;;;;;;6.67;3.90;;;17.30;99.90;;;;;;5072511;28;20466;-58
2022/09/08 01:20:11;;;;;;;4.13;3.77;;;17.30;99.90;;;;;;5072344;28;20444;-58
2022/09/08 01:22:59;;;;;;;4.77;4.30;;;17.30;99.90;;;;;;5072088;28;21061;-58
2022/09/08 01:25:38;;;;;;;6.20;3.77;;;17.30;99.90;;;;;;5072274;28;20798;-58
2022/09/08 01:28:10;;;;;;;7.27;4.10;;;17.30;99.90;;;;;;5072404;28;20450;-58
2022/09/08 01:30:37;;;;;;;6.03;3.37;;;17.30;99.90;;;;;;5072367;28;20451;-58
2022/09/08 01:33:05;;;;;;;6.13;4.07;;;17.20;99.90;;;;;;5072262;28;20452;-58
2022/09/08 01:35:34;;;;;;;4.47;4.10;;;17.20;99.90;;;;;;5075815;28;20455;-58
2022/09/08 01:38:01;;;;;;;4.70;3.87;;;17.20;99.90;;;;;;5075725;28;20451;-59
2022/09/08 01:40:28;;;;;;;7.17;4.17;;;17.30;99.90;;;;;;5075937;28;20447;-58
2022/09/08 01:42:54;;;;;;;4.03;3.47;;;17.20;99.90;;;;;;5075684;28;20485;-58
2022/09/08 01:45:23;;;;;;;5.53;4.50;;;17.30;99.90;;;;;;5075710;28;20459;-58
2022/09/08 01:47:50;;;;;;;10.43;4.23;;;17.50;99.90;;;;;;5075548;28;20485;-58
2022/09/08 01:50:16;;;;;;;4.83;4.40;;;17.50;99.90;;;;;;5075613;28;20535;-58
2022/09/08 01:52:43;;;;;;;6.80;4.40;;;17.60;99.90;;;;;;5075335;28;20486;-58
2022/09/08 01:55:09;;;;;;;5.53;3.73;;;17.60;99.90;;;;;;5075696;28;20537;-59
2022/09/08 01:57:36;;;;;;;7.83;4.20;;;17.50;99.90;;;;;;5075531;28;20538;-58
2022/09/08 02:00:04;;;;;;;4.23;3.83;;;17.40;99.90;;;;;;5075454;28;20444;-58
2022/09/08 02:02:32;;;;;;;6.23;3.73;;;17.40;99.90;;;;;;5075236;28;20573;-58
2022/09/08 02:04:58;;;;;;;8.37;4.27;;;17.40;99.90;;;;;;5075392;28;20847;-58
2022/09/08 02:07:25;;;;;;;7.50;4.73;;;17.50;99.90;;;;;;5075213;28;20792;-58
2022/09/08 02:09:52;;;;;;;5.53;4.50;;;17.50;99.90;;;;;;5075353;28;20474;-59
2022/09/08 02:12:18;;;;;;;5.20;4.70;;;17.50;99.90;;;;;;5075226;28;20663;-58
2022/09/08 02:14:45;;;;;;;7.00;4.93;;;17.50;99.90;;;;;;5075036;28;20954;-58
2022/09/08 02:17:11;;;;;;;4.97;4.43;;;17.50;99.90;;;;;;5075109;28;20806;-58
2022/09/08 02:19:39;;;;;;;6.33;4.63;;;17.50;99.90;;;;;;5075000;28;20453;-58
2022/09/08 02:22:05;;;;;;;4.63;4.23;;;17.50;99.90;;;;;;5074778;28;20487;-58
2022/09/08 02:24:32;;;;;;;6.70;4.37;;;17.50;99.90;;;;;;5075080;28;20485;-58
2022/09/08 02:26:59;;;;;;;4.73;4.43;;;17.50;99.90;;;;;;5075034;28;20451;-58
2022/09/08 02:29:26;;;;;;;12.80;4.20;;;17.50;99.90;;;;;;5074795;28;20935;-58
2022/09/08 02:31:52;;;;;;;4.57;4.13;;;17.40;99.90;;;;;;5074697;28;20942;-58
2022/09/08 02:34:19;;;;;;;6.83;4.00;;;17.00;99.90;;;;;;5074721;28;20457;-58
2022/09/08 02:36:47;;;;;;;4.53;3.20;;;16.80;99.90;;;;;;5074646;28;20457;-59
2022/09/08 02:39:16;;;;;;;7.60;4.13;;;16.60;99.90;;;;;;5075173;28;20543;-58
2022/09/08 02:41:43;;;;;;;5.83;3.70;;;16.60;99.90;;;;;;5074355;28;20506;-58
2022/09/08 02:44:11;;;;;;;5.50;3.43;;;16.60;99.90;;;;;;5074662;28;20443;-58
2022/09/08 02:46:38;;;;;;;3.73;3.43;;;16.50;99.90;;;;;;5073626;28;20448;-58
2022/09/08 02:49:05;;;;;;;3.50;3.20;;;16.50;99.90;;;;;;5074407;28;20479;-58
2022/09/08 02:51:32;;;;;;;6.53;3.47;;;16.40;99.90;;;;;;5074821;28;20459;-58
2022/09/08 02:54:00;;;;;;;7.40;3.27;;;16.50;99.90;;;;;;5074474;28;20479;-59
2022/09/08 02:56:27;;;;;;;6.27;3.13;;;16.40;99.90;;;;;;5074450;28;20454;-58
2022/09/08 02:58:54;;;;;;;2.90;2.57;;;16.40;99.90;;;;;;5074212;28;20459;-59
2022/09/08 03:01:21;;;;;;;6.73;3.10;;;16.40;99.90;;;;;;5074069;28;20542;-58
2022/09/08 03:03:48;;;;;;;6.10;3.30;;;16.40;99.90;;;;;;5074053;28;20961;-58
2022/09/08 03:06:14;;;;;;;3.27;3.07;;;16.40;99.90;;;;;;5074265;28;20458;-59
2022/09/08 03:08:41;;;;;;;5.00;3.60;;;16.30;99.90;;;;;;5074217;28;20444;-58
2022/09/08 03:11:09;;;;;;;3.50;3.20;;;16.40;99.90;;;;;;5074000;28;20535;-58
2022/09/08 03:13:37;;;;;;;3.93;3.03;;;16.40;99.90;;;;;;5073983;28;20443;-58
2022/09/08 03:16:03;;;;;;;4.70;3.43;;;16.30;99.90;;;;;;5073838;28;20456;-58
2022/09/08 03:18:30;;;;;;;3.30;3.00;;;16.40;99.90;;;;;;5074031;28;20447;-58
2022/09/08 03:21:01;;;;;;;6.63;3.93;;;16.40;99.90;;;;;;5073944;28;20443;-58
2022/09/08 03:23:28;;;;;;;3.13;2.93;;;16.40;99.90;;;;;;5073626;28;20986;-58
2022/09/08 03:25:55;;;;;;;5.83;3.37;;;16.20;99.90;;;;;;5073599;28;20971;-58
2022/09/08 03:28:25;;;;;;;6.13;2.90;;;16.10;99.90;;;;;;5073655;28;20448;-58
2022/09/08 03:30:51;;;;;;;5.33;3.10;;;16.10;99.90;;;;;;5073506;28;20448;-58
2022/09/08 03:33:18;;;;;;;4.93;3.60;;;16.20;99.90;;;;;;5073928;28;20818;-58
2022/09/08 03:35:46;;;;;;;10.60;2.97;;;16.10;99.90;;;;;;5073656;28;20453;-58
2022/09/08 03:38:13;;;;;;;3.13;2.83;;;16.00;99.90;;;;;;5073563;28;20522;-58
2022/09/08 03:40:41;;;;;;;4.77;2.93;;;16.00;99.90;;;;;;5073676;28;20447;-58
2022/09/08 03:43:08;;;;;;;3.70;3.40;;;16.10;99.90;;;;;;5073389;28;20521;-58
2022/09/08 03:45:40;;;;;;;5.83;3.37;;;16.00;99.90;;;;;;5073483;28;20457;-58
2022/09/08 03:48:07;;;;;;;4.90;3.20;;;16.10;99.90;;;;;;5073411;28;20507;-57
2022/09/08 03:50:33;;;;;;;4.93;3.20;;;16.20;99.90;;;;;;5073347;28;20443;-58
2022/09/08 03:53:00;;;;;;;5.47;2.77;;;16.10;99.90;;;;;;5073094;28;20490;-58
2022/09/08 03:55:26;;;;;;;3.07;2.77;;;16.10;99.90;;;;;;5073169;28;20450;-58
2022/09/08 03:57:52;;;;;;;3.37;3.07;;;16.10;99.90;;;;;;5072803;28;20454;-58
2022/09/08 04:00:19;;;;;;;3.60;3.10;;;15.90;99.90;;;;;;5073266;28;20776;-58
2022/09/08 04:02:47;;;;;;;5.03;3.57;;;15.90;99.90;;;;;;5073037;28;20886;-58
2022/09/08 04:05:13;;;;;;;4.23;3.13;;;15.90;99.90;;;;;;5073146;28;20815;-58
2022/09/08 04:07:40;;;;;;;3.37;2.63;;;16.00;99.90;;;;;;5073044;28;20815;-58
2022/09/08 04:10:08;;;;;;;6.50;3.47;;;16.00;99.90;;;;;;5072890;28;20530;-59
2022/09/08 04:12:34;;;;;;;6.10;3.10;;;15.90;99.90;;;;;;5073155;28;20493;-58
2022/09/08 04:15:01;;;;;;;5.70;3.30;;;15.80;99.90;;;;;;5073093;28;20535;-59
2022/09/08 04:17:27;;;;;;;3.67;3.37;;;16.00;99.90;;;;;;5072985;28;20481;-58
2022/09/08 04:19:55;;;;;;;5.13;3.03;;;16.00;99.90;;;;;;5072858;28;20443;-59
2022/09/08 04:22:22;;;;;;;8.77;2.90;;;15.90;99.90;;;;;;5072610;28;20477;-58
2022/09/08 04:24:49;;;;;;;3.80;2.80;;;15.80;99.90;;;;;;5072909;28;20868;-59
2022/09/08 04:27:17;;;;;;;4.03;3.07;;;15.70;99.90;;;;;;5073210;28;20534;-58
2022/09/08 04:29:44;;;;;;;6.63;3.13;;;15.70;99.90;;;;;;5072914;28;20453;-59
2022/09/08 04:32:10;;;;;;;4.43;3.03;;;15.60;99.90;;;;;;5072784;28;20932;-58
2022/09/08 04:34:37;;;;;;;4.00;3.10;;;15.60;99.90;;;;;;5072733;28;20448;-57
2022/09/08 04:37:06;;;;;;;6.10;3.60;;;15.60;99.90;;;;;;5072973;28;20454;-58
2022/09/08 04:39:33;;;;;;;4.03;3.37;;;15.60;99.90;;;;;;5072598;28;20447;-59
2022/09/08 04:41:59;;;;;;;5.40;3.00;;;15.70;99.90;;;;;;5072633;28;20471;-58
2022/09/08 04:44:26;;;;;;;4.20;3.10;;;15.70;99.90;;;;;;5072705;28;20818;-58
2022/09/08 04:46:53;;;;;;;4.77;3.50;;;15.60;99.90;;;;;;5072670;28;21056;-58
2022/09/08 04:49:19;;;;;;;4.43;3.47;;;15.60;99.90;;;;;;5072353;28;20551;-58
2022/09/08 04:51:46;;;;;;;4.00;2.87;;;15.50;99.90;;;;;;5072484;28;20883;-59
2022/09/08 04:54:14;;;;;;;4.03;3.10;;;15.50;99.90;;;;;;5072428;28;20850;-58
2022/09/08 04:56:40;;;;;;;3.33;3.03;;;15.60;99.90;;;;;;5072743;28;20889;-57
2022/09/08 04:59:06;;;;;;;3.97;2.90;;;15.50;99.90;;;;;;5072531;28;20449;-57
2022/09/08 05:01:35;;;;;;;3.60;3.00;;;15.60;99.90;;;;;;5072627;28;20444;-58
2022/09/08 05:04:03;;;;;;;5.20;3.10;;;15.60;99.90;;;;;;5072377;28;20565;-58
2022/09/08 05:06:32;;;;;;;6.60;3.40;;;15.70;99.90;;;;;;5072301;28;20455;-59
2022/09/08 05:09:00;;;;;;;5.03;3.30;;;15.60;99.90;;;;;;5074088;28;20542;-57
2022/09/08 05:11:31;;;;;;;5.80;3.57;;;15.50;99.90;;;;;;5076153;28;20447;-58
2022/09/08 05:13:58;;;;;;;6.17;3.67;;;15.70;99.90;;;;;;5076289;28;20451;-58
2022/09/08 05:16:26;;;;;;;5.10;3.73;;;15.70;99.90;;;;;;5076175;28;20454;-58
2022/09/08 05:18:55;;;;;;;7.03;3.20;;;15.70;99.90;;;;;;5076063;28;20500;-58
2022/09/08 05:21:23;;;;;;;5.90;3.60;;;15.60;99.90;;;;;;5076105;28;20546;-58
2022/09/08 05:23:50;;;;;;;3.97;3.57;;;15.60;99.90;;;;;;5076024;28;20581;-57
2022/09/08 05:26:18;;;;;;;9.40;3.57;;;15.70;99.90;;;;;;5076309;28;20489;-58
2022/09/08 05:28:46;;;;;;;4.83;3.77;;;15.70;99.90;;;;;;5076022;28;20814;-58
2022/09/08 05:31:15;;;;;;;6.20;4.03;;;15.60;99.90;;;;;;5075801;28;20447;-58
2022/09/08 05:33:42;;;;;;;4.13;3.27;;;15.60;99.90;;;;;;5075600;28;20469;-58
2022/09/08 05:36:11;;;;;;;7.53;3.80;;;15.50;99.90;;;;;;5075849;28;20448;-59
2022/09/08 05:38:38;;;;;;;8.00;3.27;;;15.50;99.90;;;;;;5075778;28;20447;-59
2022/09/08 05:41:04;;;;;;;4.83;3.90;;;15.50;99.90;;;;;;5075633;28;20454;-59
2022/09/08 05:43:31;;;;;;;5.43;3.60;;;15.60;99.90;;;;;;5075595;28;20479;-58
2022/09/08 05:45:59;;;;;;;6.20;3.93;;;15.80;99.90;;;;;;5075485;28;20542;-58
2022/09/08 05:48:25;;;;;;;4.70;3.80;;;15.90;99.90;;;;;;5075050;28;20862;-58
2022/09/08 05:50:52;;;;;;;4.73;3.17;;;15.90;99.90;;;;;;5075734;28;20965;-58
2022/09/08 05:53:19;;;;;;;3.43;2.93;;;16.00;99.90;;;;;;5075516;28;20443;-58
2022/09/08 05:55:56;;;;;;;6.80;4.03;;;16.00;99.90;;;;;;5075461;28;20562;-58
2022/09/08 05:58:23;;;;;;;5.07;3.83;;;15.90;99.90;;;;;;5075393;28;20961;-57
2022/09/08 06:00:55;;;;;;;6.33;3.90;;;15.80;99.90;;;;;;5075120;28;20452;-58
2022/09/08 06:03:22;;;;;;;9.63;4.10;;;15.80;99.90;;;;;;5075352;28;20575;-58
2022/09/08 06:05:49;;;;;;;14.07;4.07;;;15.80;99.90;;;;;;5075493;28;20546;-59
2022/09/08 06:08:16;;;;;;;4.33;3.50;;;16.00;99.90;;;;;;5075253;28;20447;-58
2022/09/08 06:10:42;;;;;;;4.47;3.80;;;15.90;99.90;;;;;;5075268;28;20542;-58
2022/09/08 06:13:08;;;;;;;4.23;3.83;;;15.80;99.90;;;;;;5074847;28;20456;-58
2022/09/08 06:15:35;;;;;;;5.60;3.37;;;15.80;99.90;;;;;;5075057;28;20485;-58
2022/09/08 06:18:02;;;;;;;6.40;3.80;;;16.00;99.90;;;;;;5075061;28;20487;-58
2022/09/08 06:20:31;;;;;;;6.03;3.57;;;16.00;99.90;;;;;;5075053;28;20456;-58
2022/09/08 06:22:57;;;;;;;7.20;4.00;;;16.10;99.90;;;;;;5074847;28;20880;-58
2022/09/08 06:25:24;;;;;;;6.90;3.73;;;16.00;99.90;;;;;;5074843;28;20814;-58
2022/09/08 06:27:55;;;;;;;7.53;4.30;;;16.20;99.90;;;;;;5074577;28;20451;-58
2022/09/08 06:30:22;;;;;;;9.87;3.67;;;16.10;99.90;;;;;;5074846;28;20878;-60
2022/09/08 06:32:51;;;;;;;4.03;3.63;;;16.10;99.90;;;;;;5074729;28;20447;-60
2022/09/08 06:35:23;;;;;;;4.67;4.07;;;16.10;99.90;;;;;;5074505;28;20581;-58
2022/09/08 06:37:55;;;;;;;7.70;4.60;;;16.20;99.90;;;;;;5074490;28;20943;-58
2022/09/08 06:40:25;;;;;;;7.67;4.30;;;16.30;99.90;;;;;;5074462;28;20452;-58
2022/09/08 06:42:58;;;;;;;5.17;4.00;;;16.30;99.90;;;;;;5074378;28;20479;-58
2022/09/08 06:45:27;;;;;;;5.83;4.40;;;16.30;99.90;;;;;;5074597;28;20451;-58
2022/09/08 06:48:05;;;;;;;9.20;4.20;;;16.40;99.90;;;;;;5074220;28;20871;-58
2022/09/08 06:50:33;;;;;;;9.43;4.30;;;16.40;99.90;;;;;;5074231;28;20439;-59
2022/09/08 06:53:06;;;;;;;4.87;4.10;;;16.30;99.90;;;;;;5074353;28;20443;-59
2022/09/08 06:55:38;;;;;;;5.50;4.03;;;16.40;99.90;;;;;;5074294;28;20458;-58
2022/09/08 06:58:19;;;;;;;6.60;4.10;;;16.40;99.90;;;;;;5074115;28;20447;-58
2022/09/08 07:00:49;;;;;;;7.67;4.00;;;16.50;99.90;;;;;;5074348;28;20534;-58
2022/09/08 07:03:33;;;;;;;5.73;3.87;;;16.60;99.90;;;;;;5073910;28;20570;-58
2022/09/08 07:06:03;;;;;;;5.43;4.30;;;16.60;99.90;;;;;;5074261;28;20547;-58
2022/09/08 07:08:47;;;;;;;6.97;3.90;;;16.60;99.90;;;;;;5074175;28;20803;-59
2022/09/08 07:11:33;;;;;;;6.20;4.33;;;16.70;99.90;;;;;;5074051;28;20445;-58
2022/09/08 07:14:09;;;;;;;8.50;4.50;;;16.80;99.90;;;;;;5072120;28;20444;-58
2022/09/08 07:16:41;;;;;;;6.80;4.17;;;17.00;99.90;;;;;;5069285;28;20525;-58
2022/09/08 07:19:15;;;;;;;5.63;5.03;;;17.10;99.90;;;;;;5072653;28;20528;-56
2022/09/08 07:21:47;;;;;;;5.83;4.27;;;17.20;99.90;;;;;;5072154;28;20452;-58
2022/09/08 07:24:17;;;;;;;4.30;3.60;;;17.10;99.90;;;;;;5070967;28;20475;-58
2022/09/08 07:26:49;;;;;;;6.53;4.20;;;17.20;99.90;;;;;;5073540;28;21045;-58
2022/09/08 07:29:20;;;;;;;15.03;5.00;;;17.10;99.90;;;;;;5071522;28;20447;-58
2022/09/08 07:31:50;;;;;;;4.83;4.30;;;17.10;99.90;;;;;;5071383;28;20953;-58
2022/09/08 07:34:21;;;;;;;7.70;4.40;;;17.20;99.90;;;;;;5073644;28;20794;-59
2022/09/08 07:36:55;;;;;;;5.13;4.30;;;17.30;99.90;;;;;;5073490;28;20453;-59
2022/09/08 07:39:28;;;;;;;5.57;4.47;;;17.50;99.90;;;;;;5073715;28;20447;-58
2022/09/08 07:41:58;;;;;;;6.13;4.90;;;17.60;99.90;;;;;;5073379;28;20867;-58
2022/09/08 07:44:26;;;;;;;7.20;4.60;;;17.60;99.90;;;;;;5073242;28;20483;-57
2022/09/08 07:47:18;;;;;;;7.23;4.67;;;17.60;99.90;;;;;;5073239;28;20455;-57
2022/09/08 07:49:53;;;;;;;5.40;4.37;;;17.70;99.90;;;;;;5073313;28;20448;-58
2022/09/08 07:52:28;;;;;;;5.50;4.37;;;17.90;99.90;;;;;;5072987;28;20946;-59
2022/09/08 07:55:09;;;;;;;7.13;4.63;;;18.00;99.90;;;;;;5073133;28;20447;-58
2022/09/08 07:57:47;;;;;;;7.80;5.23;;;18.20;99.90;;;;;;5073356;28;20431;-58
2022/09/08 08:00:17;;;;;;;5.13;4.63;;;18.30;99.90;;;;;;5073116;28;20558;-58
2022/09/08 08:03:15;;;;;;;13.23;5.07;;;17.90;99.90;;;;;;5072739;28;20992;-58
2022/09/08 08:05:45;;;;;;;8.57;5.30;;;17.80;99.90;;;;;;5055219;28;20795;-58
2022/09/08 08:08:25;;;;;;;7.37;5.30;;;17.90;99.90;;;;;;5073127;28;20806;-59
2022/09/08 08:11:03;;;;;;;7.80;4.60;;;18.10;99.90;;;;;;5072274;28;20542;-59
2022/09/08 08:13:45;;;;;;;7.80;6.10;;;18.30;99.90;;;;;;5072488;28;20462;-58
2022/09/08 08:16:14;;;;;;;7.10;4.80;;;18.40;99.90;;;;;;5072778;28;20462;-59
2022/09/08 08:18:54;;;;;;;5.30;4.70;;;18.40;99.90;;;;;;5072639;28;20849;-58
2022/09/08 08:21:25;;;;;;;5.50;5.03;;;18.50;99.90;;;;;;5065743;28;20451;-59
2022/09/08 08:24:06;;;;;;;6.33;5.00;;;18.50;99.90;;;;;;5067683;28;20987;-58
2022/09/08 08:26:41;;;;;;;7.90;5.27;;;18.50;99.90;;;;;;5065936;28;20816;-58
2022/09/08 08:29:32;;;;;;;6.27;5.67;;;18.50;99.90;;;;;;5064797;28;20931;-58
2022/09/08 08:32:06;;;;;;;7.83;5.40;;;18.40;99.90;;;;;;5052666;28;20448;-59
2022/09/08 08:34:40;;;;;;;5.30;4.70;;;18.30;99.90;;;;;;5052463;28;20458;-59
2022/09/08 08:37:07;;;;;;;7.93;5.33;;;18.30;99.90;;;;;;5065940;28;20450;-59
2022/09/08 08:39:36;;;;;;;8.87;5.57;;;18.30;99.90;;;;;;5054182;28;20454;-60
2022/09/08 08:42:20;;;;;;;7.63;5.20;;;18.30;99.90;;;;;;5058888;28;20859;-59
2022/09/08 08:45:08;;;;;;;7.70;5.30;;;18.30;99.90;;;;;;5055382;28;20487;-59
2022/09/08 08:47:53;;;;;;;10.80;5.70;;;18.30;99.90;;;;;;5056331;28;20472;-60
2022/09/08 08:50:38;;;;;;;7.20;4.83;;;18.30;99.90;;;;;;5056206;28;20462;-60
2022/09/08 08:53:46;;;;;;;5.80;5.17;;;18.20;99.90;;;;;;5069585;28;20535;-62
2022/09/08 08:56:20;;;;;;;5.13;4.73;;;18.40;99.90;;;;;;5066791;28;20448;-61
2022/09/08 08:59:05;;;;;;;8.90;5.43;;;18.70;99.90;;;;;;5075183;28;20964;-63
2022/09/08 09:01:58;;;;;;;6.90;5.00;;;18.60;99.90;;;;;;5073168;28;20451;-63
2022/09/08 09:04:42;;;;;;;8.10;4.93;;;18.80;99.90;;;;;;5072832;28;20838;-61
2022/09/08 09:08:02;;;;;;;10.70;5.97;;;18.80;99.90;;;;;;5076225;28;20782;-62
2022/09/08 09:10:54;;;;;;;9.40;6.63;;;18.80;99.90;;;;;;5073604;28;20528;-59
2022/09/08 09:13:40;;;;;;;8.73;5.90;;;18.90;99.90;;;;;;5078296;28;20882;-61
2022/09/08 09:16:20;;;;;;;8.20;5.10;;;19.00;99.90;;;;;;5070730;28;20454;-59
2022/09/08 09:19:07;;;;;;;7.17;5.37;;;19.10;99.90;;;;;;5069299;28;20461;-60
2022/09/08 09:21:51;;;;;;;14.53;6.20;;;19.30;99.90;;;;;;5070433;28;20510;-59
2022/09/08 09:24:36;;;;;;;7.93;6.10;;;19.40;99.90;;;;;;5071884;28;20475;-59
2022/09/08 09:27:13;;;;;;;8.30;5.30;;;19.40;99.90;;;;;;5072023;28;20853;-59
2022/09/08 09:29:41;;;;;;;6.03;5.40;;;19.40;99.90;;;;;;5069141;28;21013;-60
2022/09/08 09:32:30;;;;;;;7.00;5.30;;;19.40;99.90;;;;;;5074746;28;21046;-60
2022/09/08 09:35:39;;;;;;;8.67;6.20;;;19.60;99.90;;;;;;5055130;28;20448;-60
2022/09/08 09:38:47;;;;;;;10.93;5.83;;;19.50;99.90;;;;;;5055646;28;20447;-60
2022/09/08 09:41:42;;;;;;;10.57;6.73;;;19.60;99.90;;;;;;5073291;28;20450;-62
2022/09/08 09:44:29;;;;;;;11.70;6.77;;;19.50;99.90;;;;;;5074439;28;20481;-62
2022/09/08 09:47:18;;;;;;;7.00;6.40;;;19.30;99.90;;;;;;5065821;28;20796;-59
2022/09/08 09:50:18;;;;;;;10.07;5.87;;;19.30;99.90;;;;;;5065766;28;20457;-61
2022/09/08 09:52:54;;;;;;;11.07;6.73;;;19.30;99.90;;;;;;5075309;28;20453;-62
2022/09/08 09:55:39;;;;;;;8.00;6.20;;;19.40;99.90;;;;;;5060543;28;20458;-62
2022/09/08 09:58:51;;;;;;;9.63;7.50;;;19.30;99.90;;;;;;5071745;28;20972;-59
2022/09/08 10:01:53;;;;;;;8.03;6.17;;;19.20;99.90;;;;;;5055567;28;20454;-63
2022/09/08 10:04:53;;;;;;;12.27;6.93;;;19.30;99.90;;;;;;5069242;28;20483;-58
2022/09/08 10:07:48;;;;;;;7.07;6.47;;;19.20;99.90;;;;;;5062698;28;20450;-63
2022/09/08 10:10:35;;;;;;;10.90;7.37;;;19.40;99.90;;;;;;5058019;28;20447;-60
2022/09/08 10:13:39;;;;;;;12.27;6.90;;;19.40;99.90;;;;;;5065625;28;20447;-62
2022/09/08 10:16:39;;;;;;;7.47;6.60;;;19.50;99.90;;;;;;5074522;28;20447;-62
2022/09/08 10:19:35;;;;;;;5.80;5.37;;;19.50;99.90;;;;;;5074856;28;20459;-62
2022/09/08 10:22:34;;;;;;;7.50;6.90;;;19.70;99.90;;;;;;5069707;28;20451;-60
2022/09/08 10:25:37;;;;;;;7.93;7.13;;;19.70;99.90;;;;;;5050144;28;20445;-59
2022/09/08 10:28:25;;;;;;;12.70;8.20;;;19.90;99.90;;;;;;5070908;28;20193;-64
2022/09/08 10:31:17;;;;;;;10.50;7.10;;;19.90;99.90;;;;;;5067338;28;20452;-62
2022/09/08 10:34:07;;;;;;;8.63;7.43;;;19.90;99.90;;;;;;5062833;28;20455;-62
2022/09/08 10:36:55;;;;;;;15.30;9.37;;;20.00;99.90;;;;;;5071756;28;20461;-59
2022/09/08 10:39:37;;;;;;;11.67;9.30;;;19.80;99.90;;;;;;5072213;28;20905;-59
2022/09/08 10:42:30;;;;;;;13.37;9.57;;;19.80;99.90;;;;;;5073568;28;20451;-59
2022/09/08 10:45:18;;;;;;;8.90;8.00;;;19.70;99.90;;;;;;5072086;28;20480;-59
2022/09/08 10:48:20;;;;;;;10.87;9.37;;;19.60;99.90;;;;;;5075656;28;20486;-60
2022/09/08 10:50:52;;;;;;;9.77;8.53;;;19.60;99.90;;;;;;5074273;28;20443;-51
2022/09/08 10:54:00;;;;;;;13.60;8.93;;;19.50;99.90;;;;;;5072166;28;20966;-59
2022/09/08 10:56:28;;;;;;;10.87;8.97;;;19.40;99.90;;;;;;5032240;28;20812;-59
2022/09/08 10:59:13;;;;;;;11.67;8.90;;;19.40;99.90;;;;;;5014798;28;20446;-63
2022/09/08 11:01:55;;;;;;;10.10;9.10;;;19.40;99.90;;;;;;5053307;28;20474;-60
2022/09/08 11:05:06;;;;;;;10.40;9.30;;;19.40;99.90;;;;;;5072639;28;20511;-59
2022/09/08 11:07:51;;;;;;;14.83;10.07;;;19.40;99.90;;;;;;5070565;28;20481;-60
2022/09/08 11:10:28;;;;;;;10.97;9.97;;;19.40;99.90;;;;;;5074528;28;20455;-59
2022/09/08 11:13:08;;;;;;;12.00;10.90;;;19.40;99.90;;;;;;5072705;28;20487;-60
2022/09/08 11:15:54;;;;;;;10.30;9.30;;;19.40;99.90;;;;;;5074050;28;20451;-59
2022/09/08 11:18:36;;;;;;;15.23;9.57;;;19.40;99.90;;;;;;5073711;28;20965;-59
2022/09/08 11:21:08;;;;;;;13.50;10.47;;;19.40;99.90;;;;;;5073695;28;20444;-59
2022/09/08 11:23:49;;;;;;;12.13;10.67;;;19.20;99.90;;;;;;5074221;28;20539;-59
2022/09/08 11:26:36;;;;;;;11.30;10.20;;;19.00;99.90;;;;;;5073950;28;20455;-59
2022/09/08 11:29:09;;;;;;;16.30;10.90;;;18.90;99.90;;;;;;5073710;28;20447;-59
2022/09/08 11:31:46;;;;;;;12.57;10.83;;;18.80;99.90;;;;;;5073824;28;20806;-59
2022/09/08 11:34:30;;;;;;;14.13;10.90;;;18.60;99.90;;;;;;5073524;28;20447;-59
2022/09/08 11:37:29;;;;;;;15.57;11.70;;;18.50;99.90;;;;;;5074046;28;20838;-59
2022/09/08 11:40:16;;;;;;;12.50;11.30;;;18.50;99.90;;;;;;5072928;28;20444;-61
2022/09/08 11:42:57;;;;;;;14.07;10.47;;;18.60;99.90;;;;;;5072389;28;20443;-59
2022/09/08 11:45:32;;;;;;;11.90;10.80;;;18.70;99.90;;;;;;5072290;28;20834;-59
2022/09/08 11:48:21;;;;;;;15.10;12.10;;;18.70;99.90;;;;;;5072779;28;20467;-59
2022/09/08 11:50:59;;;;;;;13.73;11.43;;;18.80;99.90;;;;;;5072517;28;20440;-59
2022/09/08 11:53:52;;;;;;;15.27;11.93;;;18.70;99.90;;;;;;5073158;28;20446;-59
2022/09/08 11:56:33;;;;;;;11.77;10.57;;;18.60;99.90;;;;;;5073178;28;20432;-59
2022/09/08 11:59:14;;;;;;;12.73;11.57;;;18.70;99.90;;;;;;5073042;28;20447;-59
2022/09/08 12:01:51;;;;;;;13.70;10.80;;;18.80;99.90;;;;;;5073330;28;20451;-59
2022/09/08 12:04:42;;;;;;;13.73;11.23;;;18.90;99.90;;;;;;5073142;28;20988;-59
2022/09/08 12:07:21;;;;;;;16.03;11.67;;;19.00;99.90;;;;;;5072972;28;20450;-59
2022/09/08 12:10:16;;;;;;;13.07;9.93;;;19.10;99.90;;;;;;5072788;28;20447;-59
2022/09/08 12:12:56;;;;;;;11.07;9.97;;;18.80;99.90;;;;;;5071197;28;20445;-59
2022/09/08 12:15:36;;;;;;;12.33;11.03;;;18.50;99.90;;;;;;5071160;28;20833;-59
2022/09/08 12:18:22;;;;;;;16.47;11.47;;;18.50;99.90;;;;;;5071211;28;20534;-59
2022/09/08 12:21:15;;;;;;;11.80;10.70;;;18.20;99.90;;;;;;5070375;28;20447;-59
2022/09/08 12:23:49;;;;;;;11.40;10.30;;;18.10;99.90;;;;;;5072909;28;20807;-59
2022/09/08 12:26:33;;;;;;;12.60;11.40;;;18.30;99.90;;;;;;5072273;28;20570;-59
2022/09/08 12:29:27;;;;;;;12.77;11.50;;;18.50;99.90;;;;;;5070579;28;20531;-59
2022/09/08 12:32:08;;;;;;;12.47;11.27;;;18.70;99.90;;;;;;5070005;28;20442;-59
2022/09/08 12:35:18;;;;;;;16.90;11.57;;;18.90;99.90;;;;;;5072606;28;20447;-59
2022/09/08 12:37:54;;;;;;;12.57;11.17;;;19.00;99.90;;;;;;5065829;28;20530;-59
2022/09/08 12:40:51;;;;;;;10.67;9.73;;;19.10;99.90;;;;;;5072671;28;20447;-59
2022/09/08 12:43:21;;;;;;;11.50;10.27;;;18.80;99.90;;;;;;5072022;28;20878;-58
2022/09/08 12:46:13;;;;;;;12.20;11.00;;;18.70;99.90;;;;;;5069657;28;21047;-59
2022/09/08 12:48:53;;;;;;;13.17;11.87;;;18.60;99.90;;;;;;5071321;28;20471;-59
2022/09/08 12:51:25;;;;;;;12.87;11.67;;;18.70;99.90;;;;;;5071283;28;20446;-59
2022/09/08 12:54:21;;;;;;;12.87;11.70;;;18.60;99.90;;;;;;5072013;28;20497;-59
2022/09/08 12:57:11;;;;;;;13.97;12.60;;;18.60;99.90;;;;;;5069740;28;20538;-59
2022/09/08 12:59:48;;;;;;;14.27;12.43;;;18.80;99.90;;;;;;5072452;28;20534;-59
2022/09/08 13:02:34;;;;;;;15.47;13.93;;;18.80;99.90;;;;;;5072614;28;20483;-57
2022/09/08 13:05:16;;;;;;;14.43;12.77;;;18.60;99.90;;;;;;5072172;28;20485;-57
2022/09/08 13:07:53;;;;;;;15.67;14.20;;;18.70;99.90;;;;;;5072106;28;20458;-57
2022/09/08 13:10:29;;;;;;;15.27;13.90;;;18.70;99.90;;;;;;5072234;28;20443;-58
2022/09/08 13:13:30;;;;;;;17.30;14.23;;;18.70;99.90;;;;;;5072337;28;20439;-58
2022/09/08 13:16:04;;;;;;;17.03;15.50;;;18.60;99.90;;;;;;5067627;28;20464;-58
2022/09/08 13:18:37;;;;;;;16.87;13.27;;;18.60;99.90;;;;;;5071588;28;20449;-58
2022/09/08 13:21:12;;;;;;;17.10;15.50;;;18.70;99.90;;;;;;5072341;28;20447;-57
2022/09/08 13:23:53;;;;;;;19.70;15.80;;;18.50;99.90;;;;;;5072490;28;20453;-58
2022/09/08 13:26:38;;;;;;;16.03;14.40;;;18.30;99.90;;;;;;5072168;28;20480;-59
2022/09/08 13:29:34;;;;;;;14.80;13.10;;;18.40;99.90;;;;;;5072550;28;20806;-58